createdAt,value
2022-11-13T00:01:15.458Z,41.33
2022-11-13T00:03:44.946Z,41.10
2022-11-13T00:06:14.661Z,47.60
2022-11-13T00:08:45.114Z,42.03
2022-11-13T00:11:18.440Z,40.38
2022-11-13T00:13:47.984Z,48.42
2022-11-13T00:16:19.455Z,37.20
2022-11-13T00:18:49.036Z,37.45
2022-11-13T00:21:20.068Z,39.00
2022-11-13T00:23:50.677Z,44.60
2022-11-13T00:26:21.914Z,45.67
2022-11-13T00:28:55.486Z,41.88
2022-11-13T00:31:24.333Z,42.85
2022-11-13T00:36:41.440Z,42.58
2022-11-13T00:39:11.605Z,48.13
2022-11-13T00:41:40.069Z,42.60
2022-11-13T00:44:09.139Z,39.17
2022-11-13T00:46:38.217Z,44.20
2022-11-13T00:49:06.814Z,42.85
2022-11-13T00:51:35.281Z,44.22
2022-11-13T00:54:03.659Z,36.88
2022-11-13T00:56:33.633Z,41.05
2022-11-13T00:59:02.047Z,40.72
2022-11-13T01:01:30.668Z,49.28
2022-11-13T01:03:59.200Z,49.67
2022-11-13T01:06:29.436Z,43.80
2022-11-13T01:08:59.949Z,44.25
2022-11-13T01:11:32.405Z,47.83
2022-11-13T01:14:00.775Z,45.10
2022-11-13T01:16:30.523Z,43.58
2022-11-13T01:18:59.313Z,50.45
2022-11-13T01:21:31.582Z,45.30
2022-11-13T01:24:00.363Z,41.10
2022-11-13T01:26:32.911Z,44.53
2022-11-13T01:29:04.399Z,40.40
2022-11-13T01:31:33.269Z,45.05
2022-11-13T01:34:01.664Z,48.25
2022-11-13T01:36:31.379Z,46.95
2022-11-13T01:39:01.824Z,43.53
2022-11-13T01:41:35.340Z,46.70
2022-11-13T01:44:04.087Z,50.58
2022-11-13T01:46:34.235Z,50.78
2022-11-13T01:49:22.286Z,50.35
2022-11-13T01:51:55.922Z,54.53
2022-11-13T01:54:30.557Z,51.22
2022-11-13T01:57:01.138Z,54.05
2022-11-13T01:59:33.410Z,50.88
2022-11-13T02:02:02.949Z,54.67
2022-11-13T02:04:33.031Z,54.85
2022-11-13T02:07:05.615Z,57.78
2022-11-13T02:09:39.154Z,53.00
2022-11-13T02:12:12.611Z,51.13
2022-11-13T02:14:44.348Z,54.33
2022-11-13T02:17:17.810Z,55.88
2022-11-13T02:19:52.101Z,50.80
2022-11-13T02:22:34.979Z,46.47
2022-11-13T02:25:07.451Z,58.40
2022-11-13T02:27:44.062Z,55.90
2022-11-13T02:30:17.506Z,54.67
2022-11-13T02:32:51.106Z,54.38
2022-11-13T02:35:25.610Z,52.58
2022-11-13T02:37:55.874Z,49.90
2022-11-13T02:40:26.824Z,48.40
2022-11-13T02:42:55.220Z,52.88
2022-11-13T02:45:24.495Z,51.00
2022-11-13T02:47:52.995Z,59.20
2022-11-13T02:50:21.747Z,54.17
2022-11-13T02:52:50.172Z,50.15
2022-11-13T02:55:19.001Z,47.63
2022-11-13T02:57:48.923Z,53.38
2022-11-13T03:00:18.748Z,55.00
2022-11-13T03:02:47.189Z,56.08
2022-11-13T03:05:15.577Z,57.58
2022-11-13T03:07:44.440Z,53.83
2022-11-13T03:10:13.208Z,55.85
2022-11-13T03:12:42.233Z,59.58
2022-11-13T03:15:12.669Z,51.25
2022-11-13T03:17:42.570Z,52.50
2022-11-13T03:20:11.685Z,55.22
2022-11-13T03:22:40.252Z,50.83
2022-11-13T03:25:10.898Z,56.00
2022-11-13T03:27:39.934Z,50.25
2022-11-13T03:30:11.977Z,54.97
2022-11-13T03:32:40.296Z,50.90
2022-11-13T03:35:10.074Z,60.80
2022-11-13T03:37:38.857Z,46.90
2022-11-13T03:40:09.487Z,50.38
2022-11-13T03:42:37.843Z,47.97
2022-11-13T03:45:07.225Z,49.42
2022-11-13T03:47:37.410Z,45.80
2022-11-13T03:50:07.040Z,48.20
2022-11-13T03:52:35.795Z,47.55
2022-11-13T03:55:04.241Z,44.10
2022-11-13T03:57:32.867Z,47.78
2022-11-13T04:00:01.640Z,46.08
2022-11-13T04:02:30.335Z,43.20
2022-11-13T04:05:00.248Z,42.22
2022-11-13T04:07:28.712Z,46.13
2022-11-13T04:09:57.090Z,42.88
2022-11-13T04:12:27.295Z,40.88
2022-11-13T04:14:55.611Z,38.42
2022-11-13T04:17:24.075Z,40.13
2022-11-13T04:19:52.596Z,39.55
2022-11-13T04:22:22.587Z,40.30
2022-11-13T04:24:51.644Z,38.42
2022-11-13T04:27:20.081Z,40.35
2022-11-13T04:29:49.360Z,38.00
2022-11-13T04:32:17.936Z,35.53
2022-11-13T04:34:46.533Z,46.20
2022-11-13T04:37:15.023Z,40.95
2022-11-13T04:39:44.896Z,45.00
2022-11-13T04:42:31.509Z,46.38
2022-11-13T04:45:02.759Z,48.35
2022-11-13T04:47:32.264Z,43.67
2022-11-13T04:50:03.427Z,41.80
2022-11-13T04:52:31.987Z,45.05
2022-11-13T04:55:02.025Z,42.50
2022-11-13T04:57:30.718Z,43.28
2022-11-13T04:59:59.606Z,43.13
2022-11-13T05:02:28.293Z,46.47
2022-11-13T05:05:01.784Z,45.55
2022-11-13T05:07:33.395Z,43.63
2022-11-13T05:10:07.558Z,47.30
2022-11-13T05:12:35.986Z,43.33
2022-11-13T05:15:05.322Z,41.83
2022-11-13T05:17:33.708Z,45.58
2022-11-13T05:20:02.953Z,49.45
2022-11-13T05:22:31.685Z,49.38
2022-11-13T05:25:00.328Z,47.67
2022-11-13T05:27:32.653Z,45.33
2022-11-13T05:30:01.130Z,46.33
2022-11-13T05:32:29.969Z,42.17
2022-11-13T05:34:58.436Z,44.25
2022-11-13T05:37:26.771Z,45.17
2022-11-13T05:39:55.160Z,39.80
2022-11-13T05:42:23.649Z,45.92
2022-11-13T05:44:53.495Z,47.20
2022-11-13T05:47:22.250Z,51.58
2022-11-13T05:49:50.542Z,43.13
2022-11-13T05:52:18.991Z,44.88
2022-11-13T05:54:47.424Z,45.63
2022-11-13T05:57:15.900Z,47.40
2022-11-13T05:59:44.521Z,44.33
2022-11-13T06:02:14.335Z,47.72
2022-11-13T06:04:43.050Z,45.35
2022-11-13T06:07:11.560Z,48.05
2022-11-13T06:09:40.545Z,45.03
2022-11-13T06:12:09.428Z,46.72
2022-11-13T06:14:37.928Z,47.35
2022-11-13T06:17:06.272Z,46.65
2022-11-13T06:19:36.234Z,46.00
2022-11-13T06:22:04.767Z,47.28
2022-11-13T06:24:33.311Z,47.63
2022-11-13T06:27:02.132Z,45.60
2022-11-13T06:29:30.670Z,57.05
2022-11-13T06:31:59.029Z,39.92
2022-11-13T06:34:27.904Z,49.00
2022-11-13T06:36:57.756Z,45.35
2022-11-13T06:39:26.198Z,40.95
2022-11-13T06:41:54.730Z,48.80
2022-11-13T06:44:23.053Z,48.28
2022-11-13T06:46:51.479Z,41.00
2022-11-13T06:49:19.870Z,43.97
2022-11-13T06:51:48.379Z,43.08
2022-11-13T06:54:18.428Z,40.53
2022-11-13T06:56:47.717Z,44.90
2022-11-13T06:59:16.080Z,42.80
2022-11-13T07:01:44.593Z,45.92
2022-11-13T07:04:14.393Z,45.30
2022-11-13T07:06:42.905Z,44.13
2022-11-13T07:09:11.260Z,43.80
2022-11-13T07:11:41.362Z,47.72
2022-11-13T07:14:12.868Z,50.92
2022-11-13T07:17:07.494Z,46.47
2022-11-13T07:19:29.532Z,44.22
2022-11-13T07:21:57.857Z,45.17
2022-11-13T07:24:26.849Z,48.53
2022-11-13T07:26:56.735Z,50.17
2022-11-13T07:29:25.194Z,47.90
2022-11-13T07:31:53.516Z,47.00
2022-11-13T07:34:21.866Z,51.60
2022-11-13T07:36:50.361Z,52.60
2022-11-13T07:39:19.017Z,55.60
2022-11-13T07:41:49.174Z,55.05
2022-11-13T07:44:40.122Z,57.72
2022-11-13T07:47:07.912Z,54.85
2022-11-13T07:49:36.379Z,56.42
2022-11-13T07:52:07.680Z,55.10
2022-11-13T07:54:36.222Z,60.83
2022-11-13T07:57:04.950Z,62.72
2022-11-13T07:59:35.158Z,67.60
2022-11-13T08:02:04.652Z,72.38
2022-11-13T08:04:33.470Z,72.35
2022-11-13T08:07:02.054Z,74.70
2022-11-13T08:09:30.805Z,77.72
2022-11-13T08:12:00.135Z,77.43
2022-11-13T08:14:28.775Z,74.25
2022-11-13T08:16:58.753Z,72.35
2022-11-13T08:19:27.316Z,78.15
2022-11-13T08:21:55.881Z,79.47
2022-11-13T08:24:24.787Z,70.82
2022-11-13T08:26:53.250Z,70.90
2022-11-13T08:29:25.012Z,61.15
2022-11-13T08:31:53.879Z,60.45
2022-11-13T08:34:23.950Z,57.83
2022-11-13T08:36:52.895Z,51.30
2022-11-13T08:39:21.345Z,47.42
2022-11-13T08:41:50.410Z,43.15
2022-11-13T08:44:19.197Z,38.88
2022-11-13T08:46:50.304Z,34.83
2022-11-13T08:49:18.742Z,39.90
2022-11-13T08:51:48.734Z,34.67
2022-11-13T08:54:17.798Z,29.20
2022-11-13T08:56:56.577Z,26.58
2022-11-13T08:59:27.195Z,24.73
2022-11-13T09:01:59.657Z,21.27
2022-11-13T09:04:28.854Z,24.65
2022-11-13T09:06:58.723Z,22.58
2022-11-13T09:09:28.320Z,22.00
2022-11-13T09:11:57.261Z,19.92
2022-11-13T09:14:26.275Z,23.48
2022-11-13T09:16:54.855Z,21.45
2022-11-13T09:19:27.029Z,19.98
2022-11-13T09:22:00.340Z,23.73
2022-11-13T09:24:28.693Z,18.63
2022-11-13T09:26:58.157Z,16.83
2022-11-13T09:29:28.618Z,19.17
2022-11-13T09:31:57.731Z,16.58
2022-11-13T09:34:28.416Z,18.08
2022-11-13T09:36:56.998Z,16.30
2022-11-13T09:39:29.704Z,19.90
2022-11-13T09:42:09.500Z,13.60
2022-11-13T09:44:45.614Z,16.42
2022-11-13T09:47:22.737Z,14.45
2022-11-13T09:49:57.374Z,16.20
2022-11-13T09:52:35.825Z,17.47
2022-11-13T09:55:06.844Z,13.73
2022-11-13T09:57:45.987Z,17.83
2022-11-13T10:00:19.063Z,17.63
2022-11-13T10:03:00.526Z,14.10
2022-11-13T10:05:40.952Z,13.95
2022-11-13T10:08:18.025Z,12.18
2022-11-13T10:10:57.755Z,12.00
2022-11-13T10:13:30.178Z,12.63
2022-11-13T10:16:12.238Z,12.63
2022-11-13T10:18:42.036Z,12.90
2022-11-13T10:21:21.481Z,12.63
2022-11-13T10:24:02.027Z,11.32
2022-11-13T10:26:31.965Z,14.40
2022-11-13T10:29:07.724Z,16.10
2022-11-13T10:31:45.556Z,15.60
2022-11-13T10:34:16.106Z,14.15
2022-11-13T10:37:01.726Z,14.90
2022-11-13T10:42:00.022Z,12.85
2022-11-13T10:44:35.468Z,13.20
2022-11-13T10:47:26.455Z,12.50
2022-11-13T10:50:09.730Z,13.30
2022-11-13T10:52:48.202Z,11.07
2022-11-13T10:55:28.595Z,13.18
2022-11-13T10:58:01.454Z,12.73
2022-11-13T11:00:34.843Z,13.13
2022-11-13T11:03:05.444Z,13.90
2022-11-13T11:05:34.216Z,13.23
2022-11-13T11:08:03.008Z,11.57
2022-11-13T11:10:35.323Z,13.73
2022-11-13T11:13:13.571Z,11.15
2022-11-13T11:15:49.314Z,11.77
2022-11-13T11:18:27.697Z,15.30
2022-11-13T11:21:00.108Z,13.93
2022-11-13T11:23:42.342Z,12.30
2022-11-13T11:26:19.376Z,11.18
2022-11-13T11:29:01.625Z,14.45
2022-11-13T11:31:42.134Z,14.18
2022-11-13T11:34:19.961Z,12.82
2022-11-13T11:37:02.330Z,11.93
2022-11-13T11:39:40.484Z,12.57
2022-11-13T11:42:21.960Z,12.10
2022-11-13T11:45:12.642Z,11.75
2022-11-13T11:47:41.143Z,14.18
2022-11-13T11:50:16.559Z,11.85
2022-11-13T11:55:54.345Z,10.85
2022-11-13T11:58:53.512Z,12.52
2022-11-13T12:02:00.916Z,10.68
2022-11-13T12:04:48.447Z,11.73
2022-11-13T12:07:34.206Z,13.48
2022-11-13T12:12:56.308Z,13.45
2022-11-13T12:15:37.125Z,12.30
2022-11-13T12:18:18.554Z,10.85
2022-11-13T12:20:58.081Z,11.07
2022-11-13T12:23:42.177Z,12.05
2022-11-13T12:26:20.766Z,13.05
2022-11-13T12:29:01.566Z,11.13
2022-11-13T12:31:52.069Z,11.65
2022-11-13T12:34:29.866Z,12.02
2022-11-13T12:36:59.601Z,14.18
2022-11-13T12:39:44.002Z,13.05
2022-11-13T12:42:23.108Z,14.13
2022-11-13T12:45:02.407Z,13.68
2022-11-13T12:47:34.185Z,14.75
2022-11-13T12:50:07.773Z,10.50
2022-11-13T12:52:36.433Z,11.10
2022-11-13T12:55:09.298Z,11.20
2022-11-13T12:57:49.219Z,9.63
2022-11-13T13:00:30.470Z,12.07
2022-11-13T13:03:17.801Z,9.38
2022-11-13T13:06:20.988Z,10.52
2022-11-13T13:09:08.117Z,9.48
2022-11-13T13:11:45.478Z,10.52
2022-11-13T13:14:51.356Z,10.98
2022-11-13T13:17:22.804Z,11.73
2022-11-13T13:20:00.619Z,10.38
2022-11-13T13:22:33.946Z,11.80
2022-11-13T13:25:08.421Z,9.30
2022-11-13T13:27:43.566Z,14.02
2022-11-13T13:30:21.669Z,11.82
2022-11-13T13:33:04.190Z,11.38
2022-11-13T13:35:40.532Z,8.85
2022-11-13T13:38:20.175Z,8.48
2022-11-13T13:41:15.892Z,8.40
2022-11-13T13:44:06.045Z,8.85
2022-11-13T13:46:36.407Z,9.10
2022-11-13T13:49:09.530Z,8.50
2022-11-13T13:51:43.137Z,10.13
2022-11-13T13:54:25.074Z,9.07
2022-11-13T13:56:55.284Z,10.25
2022-11-13T13:59:29.846Z,8.88
2022-11-13T14:02:00.454Z,7.03
2022-11-13T14:04:30.700Z,9.75
2022-11-13T14:07:01.104Z,11.18
2022-11-13T14:09:32.086Z,7.10
2022-11-13T14:12:09.360Z,6.78
2022-11-13T14:14:40.971Z,5.60
2022-11-13T14:17:12.674Z,6.60
2022-11-13T14:19:41.257Z,7.57
2022-11-13T14:22:13.403Z,6.72
2022-11-13T14:24:49.916Z,7.38
2022-11-13T14:27:24.312Z,7.78
2022-11-13T14:29:56.676Z,7.43
2022-11-13T14:32:29.526Z,7.85
2022-11-13T14:35:02.259Z,9.57
2022-11-13T14:37:37.712Z,6.32
2022-11-13T14:40:21.537Z,7.50
2022-11-13T14:42:54.438Z,7.47
2022-11-13T14:45:25.804Z,6.75
2022-11-13T14:48:00.379Z,6.40
2022-11-13T14:50:31.855Z,5.37
2022-11-13T14:53:03.765Z,5.80
2022-11-13T14:55:37.638Z,6.07
2022-11-13T14:58:06.953Z,5.55
2022-11-13T15:00:38.256Z,5.95
2022-11-13T15:03:07.621Z,6.05
2022-11-13T15:05:37.935Z,11.52
2022-11-13T15:08:07.224Z,7.30
2022-11-13T15:10:38.641Z,9.00
2022-11-13T15:13:13.253Z,4.45
2022-11-13T15:15:42.261Z,4.33
2022-11-13T15:18:18.438Z,6.13
2022-11-13T15:20:47.411Z,7.38
2022-11-13T15:23:17.851Z,4.65
2022-11-13T15:25:48.065Z,6.70
2022-11-13T15:28:16.406Z,6.03
2022-11-13T15:30:44.864Z,10.40
2022-11-13T15:33:16.816Z,7.22
2022-11-13T15:35:45.560Z,8.15
2022-11-13T15:38:18.371Z,10.40
2022-11-13T15:40:48.793Z,6.63
2022-11-13T15:43:21.363Z,8.02
2022-11-13T15:45:49.771Z,7.53
2022-11-13T15:48:18.568Z,10.38
2022-11-13T15:50:47.241Z,9.32
2022-11-13T15:53:15.764Z,9.77
2022-11-13T15:55:44.632Z,10.60
2022-11-13T15:58:17.172Z,12.50
2022-11-13T16:00:46.061Z,10.32
2022-11-13T16:03:14.461Z,10.60
2022-11-13T16:05:43.042Z,11.35
2022-11-13T16:08:14.957Z,14.40
2022-11-13T16:10:43.634Z,16.15
2022-11-13T16:13:13.101Z,17.17
2022-11-13T16:15:43.563Z,16.15
2022-11-13T16:18:25.211Z,14.32
2022-11-13T16:20:54.185Z,18.65
2022-11-13T16:23:23.146Z,20.40
2022-11-13T16:25:52.763Z,16.05
2022-11-13T16:28:21.955Z,17.65
2022-11-13T16:30:54.357Z,18.70
2022-11-13T16:33:23.267Z,20.08
2022-11-13T16:35:52.444Z,22.65
2022-11-13T16:38:20.807Z,19.73
2022-11-13T16:40:49.174Z,18.77
2022-11-13T16:43:17.866Z,17.75
2022-11-13T16:45:46.179Z,18.23
2022-11-13T16:48:17.422Z,18.13
2022-11-13T16:50:45.774Z,17.60
2022-11-13T16:53:14.216Z,17.88
2022-11-13T16:55:42.591Z,23.30
2022-11-13T16:58:15.240Z,19.67
2022-11-13T17:00:43.611Z,19.38
2022-11-13T17:03:12.126Z,21.48
2022-11-13T17:05:41.994Z,21.20
2022-11-13T17:08:14.207Z,21.90
2022-11-13T17:10:42.640Z,25.98
2022-11-13T17:13:11.866Z,311.45
2022-11-13T17:15:40.320Z,145.38
2022-11-13T17:18:10.467Z,69.88
2022-11-13T17:20:39.389Z,68.03
2022-11-13T17:23:16.882Z,40.30
2022-11-13T17:25:45.393Z,34.40
2022-11-13T17:28:13.985Z,35.67
2022-11-13T17:30:42.411Z,36.13
2022-11-13T17:33:10.846Z,32.50
2022-11-13T17:35:39.466Z,25.27
2022-11-13T17:38:09.413Z,25.35
2022-11-13T17:40:37.822Z,23.63
2022-11-13T17:43:09.312Z,23.52
2022-11-13T17:45:38.812Z,25.45
2022-11-13T17:48:07.586Z,28.75
2022-11-13T17:50:36.049Z,31.45
2022-11-13T17:53:04.485Z,30.77
2022-11-13T17:55:34.290Z,34.33
2022-11-13T17:58:04.070Z,41.60
2022-11-13T18:00:32.695Z,50.33
2022-11-13T18:03:01.127Z,35.38
2022-11-13T18:05:29.733Z,32.53
2022-11-13T18:07:58.235Z,29.85
2022-11-13T18:10:29.316Z,24.38
2022-11-13T18:12:59.351Z,21.63
2022-11-13T18:15:28.312Z,25.23
2022-11-13T18:17:56.713Z,22.38
2022-11-13T18:20:29.016Z,24.60
2022-11-13T18:22:58.026Z,24.90
2022-11-13T18:25:29.606Z,25.83
2022-11-13T18:27:59.363Z,25.80
2022-11-13T18:30:27.750Z,21.67
2022-11-13T18:32:56.098Z,27.50
2022-11-13T18:35:24.511Z,21.75
2022-11-13T18:37:53.189Z,24.42
2022-11-13T18:40:21.563Z,22.63
2022-11-13T18:42:51.975Z,20.83
2022-11-13T18:45:22.092Z,25.45
2022-11-13T18:47:50.732Z,20.65
2022-11-13T18:50:19.164Z,31.15
2022-11-13T18:52:47.575Z,57.42
2022-11-13T18:55:16.048Z,44.58
2022-11-13T18:57:44.473Z,29.52
2022-11-13T19:00:14.638Z,28.33
2022-11-13T19:02:44.377Z,24.27
2022-11-13T19:05:12.816Z,21.23
2022-11-13T19:07:43.914Z,22.85
2022-11-13T19:10:12.401Z,24.60
2022-11-13T19:12:41.054Z,24.92
2022-11-13T19:15:11.111Z,21.65
2022-11-13T19:17:39.621Z,24.20
2022-11-13T19:20:11.764Z,21.10
2022-11-13T19:22:40.756Z,21.45
2022-11-13T19:25:10.082Z,22.42
2022-11-13T19:27:39.142Z,23.15
2022-11-13T19:30:09.184Z,21.70
2022-11-13T19:32:38.083Z,20.48
2022-11-13T19:35:08.107Z,22.30
2022-11-13T19:37:40.419Z,24.30
2022-11-13T19:40:13.049Z,21.65
2022-11-13T19:42:43.485Z,22.33
2022-11-13T19:45:14.020Z,21.23
2022-11-13T19:47:43.090Z,20.17
2022-11-13T19:50:12.693Z,24.35
2022-11-13T19:52:42.715Z,22.38
2022-11-13T19:55:11.385Z,25.35
2022-11-13T19:57:45.093Z,22.05
2022-11-13T20:00:15.778Z,20.67
2022-11-13T20:02:44.460Z,20.23
2022-11-13T20:05:13.384Z,24.00
2022-11-13T20:07:45.811Z,19.67
2022-11-13T20:10:16.274Z,30.50
2022-11-13T20:12:46.079Z,36.17
2022-11-13T20:15:14.965Z,26.65
2022-11-13T20:17:43.829Z,25.90
2022-11-13T20:20:13.672Z,28.02
2022-11-13T20:22:44.353Z,32.92
2022-11-13T20:25:12.978Z,28.58
2022-11-13T20:27:47.134Z,36.85
2022-11-13T20:30:16.457Z,30.10
2022-11-13T20:32:45.098Z,27.15
2022-11-13T20:35:16.241Z,27.23
2022-11-13T20:37:46.552Z,28.02
2022-11-13T20:40:15.762Z,30.13
2022-11-13T20:42:44.602Z,24.13
2022-11-13T20:45:13.267Z,23.45
2022-11-13T20:47:42.095Z,21.95
2022-11-13T20:50:11.935Z,26.48
2022-11-13T20:52:41.014Z,20.15
2022-11-13T20:55:11.405Z,20.00
2022-11-13T20:57:41.223Z,21.58
2022-11-13T21:00:12.784Z,22.10
2022-11-13T21:02:41.452Z,27.58
2022-11-13T21:05:10.822Z,28.33
2022-11-13T21:07:39.836Z,22.23
2022-11-13T21:10:10.933Z,22.35
2022-11-13T21:12:39.948Z,22.75
2022-11-13T21:15:12.996Z,22.30
2022-11-13T21:17:41.868Z,25.27
2022-11-13T21:20:14.328Z,25.42
2022-11-13T21:22:42.977Z,23.15
2022-11-13T21:25:13.096Z,25.17
2022-11-13T21:27:42.639Z,25.40
2022-11-13T21:30:12.939Z,23.70
2022-11-13T21:32:41.806Z,23.30
2022-11-13T21:35:10.800Z,32.42
2022-11-13T21:37:39.393Z,28.75
2022-11-13T21:40:10.851Z,26.20
2022-11-13T21:42:40.936Z,28.65
2022-11-13T21:45:10.992Z,24.65
2022-11-13T21:47:39.962Z,32.05
2022-11-13T21:50:09.964Z,23.33
2022-11-13T21:52:38.408Z,27.95
2022-11-13T21:55:08.678Z,25.70
2022-11-13T21:57:37.374Z,26.73
2022-11-13T22:00:11.099Z,25.77
2022-11-13T22:02:39.495Z,28.60
2022-11-13T22:05:09.175Z,29.40
2022-11-13T22:07:37.965Z,26.70
2022-11-13T22:10:08.626Z,34.15
2022-11-13T22:12:37.281Z,35.80
2022-11-13T22:15:14.540Z,31.77
2022-11-13T22:17:42.946Z,29.98
2022-11-13T22:20:13.113Z,30.98
2022-11-13T22:22:41.972Z,28.20
2022-11-13T22:25:10.790Z,35.78
2022-11-13T22:27:39.310Z,27.58
2022-11-13T22:30:11.265Z,33.88
2022-11-13T22:32:39.755Z,27.73
2022-11-13T22:35:09.594Z,31.25
2022-11-13T22:37:37.959Z,29.98
2022-11-13T22:40:07.680Z,29.17
2022-11-13T22:42:37.210Z,30.65
2022-11-13T22:45:22.832Z,32.08
2022-11-13T22:47:52.378Z,34.53
2022-11-13T22:50:20.790Z,32.88
2022-11-13T22:52:49.285Z,33.13
2022-11-13T22:55:18.012Z,35.55
2022-11-13T22:57:46.585Z,30.67
2022-11-13T23:00:18.139Z,32.70
2022-11-13T23:02:47.525Z,36.78
2022-11-13T23:05:16.542Z,32.53
2022-11-13T23:07:45.136Z,36.47
2022-11-13T23:10:14.360Z,38.58
2022-11-13T23:12:43.005Z,38.53
2022-11-13T23:15:12.357Z,40.45
2022-11-13T23:17:42.320Z,41.33
2022-11-13T23:20:12.458Z,39.08
2022-11-13T23:22:41.126Z,38.90
2022-11-13T23:25:10.848Z,42.50
2022-11-13T23:27:39.447Z,45.40
2022-11-13T23:30:10.394Z,41.03
2022-11-13T23:32:38.802Z,44.03
2022-11-13T23:35:10.034Z,43.65
2022-11-13T23:37:38.795Z,44.05
2022-11-13T23:40:09.211Z,45.92
2022-11-13T23:42:54.264Z,44.45
2022-11-13T23:45:24.066Z,47.70
2022-11-13T23:47:53.184Z,46.47
2022-11-13T23:50:23.214Z,49.28
2022-11-13T23:52:51.923Z,46.38
2022-11-13T23:55:21.270Z,54.08
2022-11-13T23:57:56.549Z,57.28
